Effective Sunday, March 17, 2024, the National Weather Service National Data Buoy Center will discontinue its Dial-A-Buoy Interactive Voice Response system. For more information, see Service Change Notice 24-06 (PDF).

Station DPLA2 - Dutch Harbor APL, AK Image indicating link to RSS feed of recent meteorological observations for station DPLA2


Conditions at DPLA2 as of
(3:34 pm AKST on 02/29/2024)
0034 GMT on 03/01/2024:
     

Click on the graph icon in the table below to see a time series plot of the last five days of that observation.

5-day plot - Wind Direction Wind Direction (WDIR):SSE ( 150 deg true )
5-day plot - Wind Speed Wind Speed (WSPD): 3 kts
5-day plot - Wind Gust Wind Gust (GST): 6 kts
5-day plot - Air Temperature Air Temperature (ATMP): 26.1 °F
5-day plot - Dew Point Dew Point (DEWP): 24.6 °F
5-day plot - Wind Chill Wind Chill (CHILL): 22.1 °F
5-day plot - Wind Speed at 10 Meters Wind Speed at 10 meters (WSPD10M): 4 kts
5-day plot - Wind Speed at 20 Meters Wind Speed at 20 meters (WSPD20M): 4 kts
5-day plot -  Wind Speed, Wind Gust and Atmospheric Pressure Combined plot of Wind Speed, Gust, and Air Pressure
Previous observations
TIME
(AKST)
5-day plot - Wind Direction
WDIR
 
5-day plot - Wind Speed
WSPD
kts
5-day plot - Wind Gust
GST
kts
5-day plot - Wave Height
WVHT
ft
5-day plot - Dominant Wave Period
DPD
sec
5-day plot - Average Wave Period
APD
sec
5-day plot - Mean Wave Direction
MWD
 
5-day plot - Atmospheric Pressure
PRES
in
5-day plot - Pressure Tendency
PTDY
in
5-day plot - Air Temperature
ATMP
°F
5-day plot - Water Temperature
WTMP
°F
5-day plot - Dew Point
DEWP
°F
5-day plot - Salinity
SAL
psu
5-day plot - Visibility
VIS
nmi
5-day plot - Tide (above MLLW)
TIDE
ft
2024-02-29 03:24 pmSSE 5 6------ 25.9- 24.3---
2024-02-29 03:14 pmSSE 5 7------ 25.9- 23.9---
2024-02-29 02:54 pmSSE 4 6------ 25.5- 23.5---
2024-02-29 02:14 pmSSE 5 6------ 26.4- 22.1---
2024-02-29 02:04 pmSSE 3 6------ 27.0- 21.4---
2024-02-29 01:54 pm S 5 8------ 27.9- 20.5---
2024-02-29 01:44 pmSSE 5 7------ 28.2- 19.9---
2024-02-29 01:34 pm S 4 6------ 28.4- 20.1---
2024-02-29 01:25 pmSSE 4 6------ 28.2- 19.8---
2024-02-29 01:14 pmSSE 4 5------ 28.8- 19.9---
2024-02-29 01:04 pm S 1 4------ 30.2- 20.8---
2024-02-29 12:54 pmSSE 1 3------ 29.5- 20.3---
2024-02-29 12:44 pmESE 2 3------ 28.6- 19.9---
2024-02-29 12:34 pm E 3 7------ 28.2- 19.9---
2024-02-29 12:24 pm E 3 9------ 28.2- 19.9---
2024-02-29 12:14 pm E 5 9------ 27.9- 20.1---
2024-02-29 12:04 pm E 4 7------ 28.0- 19.8---
2024-02-29 11:54 am E 5 7------ 27.9- 19.9---
2024-02-29 11:44 am E 5 8------ 27.9- 19.8---
2024-02-29 11:34 amENE 4 7------ 27.9- 19.6---
2024-02-29 11:24 amENE 5 8------ 27.7- 19.6---
2024-02-29 11:14 amENE 6 8------ 27.5- 19.4---
2024-02-29 11:04 amENE 6 9------ 27.5- 19.4---
2024-02-29 10:54 amENE 6 8------ 27.5- 19.2---
2024-02-29 10:44 am E 6 8------ 27.3- 19.2---
2024-02-29 10:35 am E 7 11------ 27.3- 19.4---
2024-02-29 10:24 am E 7 10------ 27.3- 19.6---
2024-02-29 10:14 amENE 6 10------ 27.5- 19.8---
2024-02-29 10:04 amENE 6 10------ 27.7- 19.8---
2024-02-29 09:54 amENE 4 10------ 27.9- 20.1---
2024-02-29 09:44 am NE 6 10------ 27.9- 20.1---
2024-02-29 09:34 am NE 6 10------ 27.9- 19.9---
2024-02-29 09:24 amNNE 5 9------ 28.0- 19.8---
2024-02-29 09:14 amNNE 5 11------ 27.9- 19.8---
2024-02-29 09:04 amNNE 7 10------ 27.9- 19.9---
2024-02-29 08:54 amNNE 7 11------ 27.9- 19.8---
2024-02-29 08:44 am N 7 12------ 27.9- 19.8---
2024-02-29 08:34 am N 6 9------ 27.9- 19.4---
2024-02-29 08:24 amNNE 5 7------ 27.9- 18.9---
2024-02-29 08:14 am N 6 10------ 27.9- 18.7---
2024-02-29 08:04 am N 6 9------ 27.9- 18.9---
2024-02-29 07:55 am N 6 9------ 27.9- 19.2---
2024-02-29 07:44 amNNE 7 11------ 27.9- 19.0---
2024-02-29 07:25 am N 7 10------ 27.9- 19.0---
2024-02-29 07:14 am N 10 12------ 27.9- 19.0---
2024-02-29 07:04 am N 10 14------ 27.9- 19.4---
2024-02-29 06:54 am N 9 14------ 28.0- 18.9---
2024-02-29 06:44 am N 6 13------ 28.2- 18.1---
2024-02-29 06:34 amNNE 5 13------ 28.2- 18.5---
2024-02-29 06:24 amNNE 6 12------ 28.2- 18.5---
2024-02-29 06:14 am NW 6 13------ 28.0- 18.1---
2024-02-29 06:04 amNNW 7 12------ 28.0- 18.3---
2024-02-29 05:54 am N 5 8------ 28.0- 18.0---
2024-02-29 05:44 am N 6 12------ 28.0- 17.8---
2024-02-29 05:34 amNNW 7 11------ 27.9- 17.6---
2024-02-29 05:24 am N 7 11------ 27.9- 17.8---
2024-02-29 05:14 am N 9 15------ 27.9- 17.1---
2024-02-29 05:04 amNNW 11 19------ 27.9- 17.6---
2024-02-29 04:54 am N 8 16------ 28.0- 18.0---
2024-02-29 04:44 am N 7 13------ 28.0- 17.8---
2024-02-29 04:34 am N 8 16------ 28.0- 17.6---
2024-02-29 04:24 amNNW 11 17------ 28.0- 18.0---
2024-02-29 04:14 am N 10 16------ 28.0- 18.0---
2024-02-29 04:04 am N 8 15------ 28.2- 18.3---
2024-02-29 03:54 amNNW 11 17------ 28.2- 18.3---
2024-02-29 03:44 amNNW 8 15------ 28.4- 18.5---
2024-02-29 03:34 am N 10 17------ 28.4- 18.5---
2024-02-29 03:24 am N 9 17------ 28.4- 18.7---
2024-02-29 03:14 am N 8 16------ 28.4- 18.7---
2024-02-29 03:04 amNNE 10 21------ 28.4- 18.5---
2024-02-29 02:54 amNNE 10 18------ 28.4- 18.7---
2024-02-29 02:44 amNNE 9 18------ 28.4- 18.7---
2024-02-29 02:34 am N 8 15------ 28.4- 18.5---
2024-02-29 02:24 am N 10 17------ 28.4- 18.7---
2024-02-29 02:14 am N 10 16------ 28.4- 18.7---
2024-02-29 02:04 am N 10 19------ 28.4- 18.5---
2024-02-29 01:54 am N 7 15------ 28.8- 18.7---
2024-02-29 01:44 am N 10 19------ 28.6- 18.3---
2024-02-29 01:34 am N 9 17------ 28.6- 18.3---
2024-02-29 01:24 am N 11 21------ 28.6- 18.1---
2024-02-29 01:14 am N 11 18------ 28.6- 18.0---
2024-02-29 01:04 am N 9 17------ 28.6- 18.3---
2024-02-29 12:54 amNNE 10 20------ 28.6- 18.7---
2024-02-29 12:44 am N 13 23------ 28.4- 19.0---
2024-02-29 12:34 am N 13 20------ 28.6- 19.2---
2024-02-29 12:24 am N 11 20------ 28.8- 19.9---
2024-02-29 12:15 amNNW 15 22------ 28.8- 19.8---
2024-02-29 12:04 amNNW 15 23------ 28.9- 19.8---
2024-02-28 11:54 pm N 12 23------ 29.1- 19.6---
2024-02-28 11:44 pm N 14 24------ 29.1- 19.6---
2024-02-28 11:34 pm N 9 16------ 29.3- 20.3---
2024-02-28 11:24 pmNNW 13 21------ 29.1- 20.8---
2024-02-28 11:14 pm N 11 20------ 29.1- 21.2---
2024-02-28 11:04 pm N 11 21------ 29.3- 21.0---
2024-02-28 10:54 pm N 12 21------ 29.7- 20.5---
2024-02-28 10:44 pmNNW 17 30------ 29.8- 19.6---
2024-02-28 10:34 pmNNW 18 26------ 30.0- 19.0---
2024-02-28 10:24 pmNNW 19 33------ 30.2- 19.4---
2024-02-28 10:14 pmNNW 14 27------ 30.0- 20.7---
2024-02-28 10:04 pmNNW 18 31------ 30.0- 20.7---
2024-02-28 09:54 pm N 18 24------ 29.8- 20.7---
2024-02-28 09:44 pmNNW 18 29------ 30.2- 19.4---
2024-02-28 09:34 pmNNW 16 23------ 30.4- 19.4---
2024-02-28 09:24 pmNNW 18 31------ 30.2- 19.6---
2024-02-28 09:14 pmNNW 21 32------ 30.2- 19.6---
2024-02-28 09:04 pmNNW 24 31------ 30.4- 19.4---
2024-02-28 08:54 pmNNW 19 33------ 30.4- 21.4---
2024-02-28 08:44 pmNNW 22 31------ 30.9- 18.5---
2024-02-28 08:34 pmNNW 25 38------ 30.9- 18.7---
2024-02-28 08:24 pmNNW 24 36------ 30.9- 19.0---
2024-02-28 08:14 pmNNW 27 38------ 31.1- 20.7---
2024-02-28 08:04 pmNNW 22 31------ 31.3- 21.2---
2024-02-28 07:54 pmNNW 28 41------ 31.3- 19.9---
2024-02-28 07:44 pmNNW 26 40------ 31.5- 20.5---
2024-02-28 07:34 pmNNW 27 40------ 31.6- 21.2---
2024-02-28 07:25 pmNNW 25 39------ 31.8- 21.4---
2024-02-28 07:14 pmNNW 24 34------ 32.0- 21.7---
2024-02-28 07:04 pmNNW 18 32------ 31.5- 24.8---
2024-02-28 06:54 pm NW 19 27------ 30.9- 26.1---
2024-02-28 06:44 pm NW 22 31------ 32.4- 24.6---
2024-02-28 06:34 pm NW 20 33------ 33.1- 24.1---
2024-02-28 06:24 pmWNW 15 24------ 33.8- 22.1---
2024-02-28 06:14 pmWNW 15 25------ 33.8- 21.2---
2024-02-28 06:04 pmWNW 14 23------ 33.6- 22.1---
2024-02-28 05:54 pmWNW 14 24------ 33.4- 22.6---
2024-02-28 05:44 pmWNW 15 23------ 33.1- 24.3---
2024-02-28 05:34 pmWNW 19 31------ 33.4- 23.2---
2024-02-28 05:24 pm W 19 30------ 33.6- 21.9---
2024-02-28 05:14 pm W 19 32------ 33.8- 23.0---
2024-02-28 05:04 pm W 17 29------ 33.6- 23.9---
2024-02-28 04:54 pmWNW 17 29------ 33.4- 25.0---
2024-02-28 04:44 pm W 18 27------ 32.7- 25.3---
2024-02-28 04:35 pm W 19 32------ 33.4- 24.4---
2024-02-28 04:24 pmWNW 16 26------ 33.8- 24.4---
2024-02-28 04:14 pm W 16 28------ 33.8- 25.5---
2024-02-28 04:04 pm W 19 29------ 33.8- 25.2---
2024-02-28 03:54 pm W 15 16------ 33.4- 25.7---
2024-02-28 03:44 pm W 14 23------ 33.4- 25.5---
2024-02-28 03:34 pm W 16 27------ 33.4- 24.8---
2024-02-28 03:24 pm W 15 21------ 33.4- 25.3---
2024-02-28 03:14 pm W 13 23------ 33.3- 26.1---
2024-02-28 02:54 pm W 13 21------ 33.3- 25.2---